Hlavní strana
METAR-TAF:

METAR-TAF

Letiště :

Letiště Sarajevo

Sarajevo, Bosna a Hercegovina

zeměpisná šířka: 43-49N, zeměpisná délka: 018-20E, výška: 511 m

Aktuální stav počasí

Zpráva byla vytvořena před 25 minutami, v 15:30 UTC
Severoseverovýchodní vítr 4 kt, proměnlivý mezi severoseverozápadním a východoseverovýchodním
Teplota 7°C
Vlhkost vzduchu 61%
Tlak 1025 hPa
Viditelnost 10 km a více
Skoro jasno ve výšce 5000 ft

METAR: LQSA 161530Z 03004KT 340V070 9999 FEW050 07/M00 Q1025 NOSIG

Čas: 16:55 (15:55 UTC)

Předpověď počasí

Zpráva byla vytvořena před 4 hodinami a 55 minutami, v 11:00 UTC
Předpověď platná od 16 v 12 UTC do 17 v 12 UTC
Severní vítr 5 kt
Viditelnost 10 km a více
Skoro jasno ve výšce 4000 ft
Oblačno až skoro zataženo ve výšce 5000 ft
Pravděpodobnost 40% :
Dočasný
od 16 v 21 UTC do 17 v 07 UTC
Viditelnost: 3000 m
kouřmo

TAF: LQSA 161100Z 1612/1712 36005KT 9999 FEW040 BKN050 TX10/1613Z TN00/1705Z PROB40 TEMPO 1621/1707 3000 BR

Stav a předpovědi počasí z více než 4 000 letišť (zprávy METAR a TAF).

Červené a žluté tečky na mapě představují dostupné meteorologické stanice.

Když kurzor umístíte na tečku, zobrazí se název stanice.

Pak kliknutím zobrazíte stav a předpověď počasí.

Chcete-li změnit mapu, kliknutím na zelené tlačítko se znaménkem +mapu přiblížíte, kliknutím na zelené tlačítko se znaménkem – mapu oddálíte a kliknutím na zelené šipky přejdete na sousední mapy.


METAR-TAF: